Terminal Aerodrome Forecast
Issued by NWS

Home | Current Version | Previous Version | Text Only | Print | Product List | Glossary On
Versions: 1 2 3 4 5 6 7 8 9 10 11 12 13
229
FTUS45 KPSR 291721
TAFIPL
TAF
KIPL 291721Z 2918/3018 12008KT P6SM SKC
     FM292000 VRB05KT P6SM SKC
     FM300200 25008KT P6SM SKC
      TEMPO 3004/3007 28012G22KT=

USA.gov is the U.S. government's official web portal to all federal, state and local government web resources and services.